GCFV/FUE METAR and TAF weather

Enter ICAO airport designator
Station Type Date Time Source
GCFV METAR 2022/12/04 06:00 UTC NOAA

GCFV 040600Z VRB02KT 9999 BKN028 17/15 Q1009


Station Type Date Time Source
GCFV Decoded METAR 2022/12/04 06:00 UTC NOAA

Fuerteventura / Aeropuerto, Spain (GCFV) 28-27N 013-52W 30M
Dec 04, 2022 - 01:00 AM EST / 2022.12.04 0600 UTC
Wind: Variable at 2 MPH (2 KT):0
Visibility: greater than 7 mile(s):0
Sky conditions: mostly cloudy
Temperature: 62 F (17 C)
Dew Point: 59 F (15 C)
Relative Humidity: 88%
Pressure (altimeter): 29.80 in. Hg (1009 hPa)
ob: GCFV 040600Z VRB02KT 9999 BKN028 17/15 Q1009
cycle: 6

Station Type Date Time Source
GCFV TAF 2022/12/04 03:27 UTC NOAA

TAF TAF GCFV 040200Z 0403/0503 25008KT 9999 BKN025 TX23/0414Z TN17/0406Z PROB30
TEMPO 0403/0409 4000 RA

Example: see airport list